logo
Rechercher aéroport 
image banner adimage banner adimage banner ad
image banner ad

SWBH - Fazenda Sao Jose Do Rancho Grande

Situé à Aquidauana, Brazil

ICAO - SWBH, IATA -

Données fournies par Airmate  

Information générale

Coordonnées: S20°9'22" W55°32'44"
Élévation : 557 feet MSL.
Variation magnétique : -17.71339804° East
Voir autres Aéroports à Tocatins

Données opérationnelles

Special qualification required
Heure actuelle UTC:
Heure actuelle locale:
Météo à : - ( 0 km )
METAR: PATQ 251637Z AUTO 31010KT 1/2SM -SN FZFG OVC002 M04/M06 A3013 RMK AO2 SNB32 P0000 FZRANO TSNO
Voir NOTAMs / SUP AIP / TFR affectant cet aéroport [VIEW]
Fréquences de communication: [VIEW]

Pistes:

Identifiant RWYQFULongueur (ft)Largeur (ft)SurfaceLDA (ft)
03262566GRASS
21262566GRASS

Coordonnées de l'aéroport

Adresse: Aquidauana Brazil

Vue satellite de SWBH